createdAt,value
2023-03-26T00:01:05.730Z,18.46
2023-03-26T00:03:39.132Z,18.50
2023-03-26T00:06:15.587Z,18.44
2023-03-26T00:08:50.004Z,18.52
2023-03-26T00:11:25.955Z,18.52
2023-03-26T00:13:59.007Z,18.45
2023-03-26T00:16:32.681Z,18.50
2023-03-26T00:19:08.993Z,18.36
2023-03-26T00:21:41.739Z,18.29
2023-03-26T00:24:17.576Z,18.40
2023-03-26T00:26:59.813Z,18.36
2023-03-26T00:29:35.847Z,18.43
2023-03-26T00:32:11.316Z,18.32
2023-03-26T00:34:46.258Z,18.36
2023-03-26T00:37:28.125Z,18.35
2023-03-26T00:40:06.879Z,18.22
2023-03-26T00:42:39.748Z,18.22
2023-03-26T00:45:22.006Z,18.32
2023-03-26T00:48:02.600Z,18.28
2023-03-26T00:50:38.940Z,18.17
2023-03-26T00:53:17.498Z,18.15
2023-03-26T00:56:00.226Z,18.26
2023-03-26T00:58:34.125Z,18.18
2023-03-26T01:04:31.713Z,18.19
2023-03-26T01:07:13.553Z,18.16
2023-03-26T01:09:50.274Z,18.12
2023-03-26T01:12:53.099Z,18.12
2023-03-26T01:15:43.654Z,18.19
2023-03-26T01:18:34.258Z,18.21
2023-03-26T01:21:23.171Z,18.06
2023-03-26T01:24:10.258Z,18.20
2023-03-26T01:27:24.661Z,18.20
2023-03-26T01:30:50.014Z,18.07
2023-03-26T01:34:05.475Z,18.18
2023-03-26T01:36:56.026Z,18.45
2023-03-26T01:39:41.362Z,18.07
2023-03-26T01:42:52.562Z,18.09
2023-03-26T01:45:43.042Z,18.17
2023-03-26T01:48:37.720Z,18.23
2023-03-26T01:51:13.080Z,18.03
2023-03-26T01:56:50.102Z,18.12
2023-03-26T01:59:54.751Z,18.05
2023-03-26T02:02:42.856Z,18.11
2023-03-26T02:05:25.747Z,18.10
2023-03-26T02:08:25.986Z,18.19
2023-03-26T02:11:04.408Z,18.04
2023-03-26T02:13:38.585Z,18.06
2023-03-26T02:16:14.550Z,18.31
2023-03-26T02:18:55.399Z,18.09
2023-03-26T02:21:33.971Z,17.91
2023-03-26T02:24:07.187Z,18.04
2023-03-26T02:26:40.005Z,18.05
2023-03-26T02:29:19.467Z,17.90
2023-03-26T02:31:52.289Z,18.02
2023-03-26T02:34:24.892Z,17.93
2023-03-26T02:36:58.040Z,18.00
2023-03-26T02:39:30.873Z,17.92
2023-03-26T02:42:03.779Z,17.92
2023-03-26T02:44:38.756Z,17.86
2023-03-26T02:47:11.396Z,17.86
2023-03-26T02:49:44.001Z,17.88
2023-03-26T02:52:18.866Z,17.90
2023-03-26T02:54:57.793Z,17.85
2023-03-26T02:57:32.925Z,17.86
2023-03-26T03:00:15.273Z,17.84
2023-03-26T03:02:57.990Z,17.97
2023-03-26T03:05:38.176Z,17.85
2023-03-26T03:08:10.767Z,17.78
2023-03-26T03:10:43.582Z,17.77
2023-03-26T03:13:28.872Z,17.89
2023-03-26T03:16:08.411Z,17.93
2023-03-26T03:18:44.322Z,17.79
2023-03-26T03:21:29.551Z,17.79
2023-03-26T03:24:05.628Z,17.85
2023-03-26T03:26:38.218Z,17.73
2023-03-26T03:29:12.078Z,17.76
2023-03-26T03:31:44.675Z,17.82
2023-03-26T03:34:17.322Z,17.79
2023-03-26T03:36:53.262Z,17.83
2023-03-26T03:39:26.013Z,17.67
2023-03-26T03:41:58.647Z,17.74
2023-03-26T03:44:34.339Z,17.70
2023-03-26T03:47:07.016Z,17.64
2023-03-26T03:49:40.849Z,17.66
2023-03-26T03:52:27.156Z,17.83
2023-03-26T03:55:11.226Z,17.58
2023-03-26T03:57:44.326Z,17.76
2023-03-26T04:00:21.916Z,17.62
2023-03-26T04:03:06.733Z,17.78
2023-03-26T04:08:42.240Z,17.62
2023-03-26T04:11:29.336Z,17.66
2023-03-26T04:17:05.960Z,17.62
2023-03-26T04:19:55.207Z,17.67
2023-03-26T04:25:33.284Z,17.66
2023-03-26T04:28:11.880Z,17.59
2023-03-26T04:30:45.026Z,17.56
2023-03-26T04:33:17.695Z,17.53
2023-03-26T04:36:03.885Z,17.59
2023-03-26T04:38:48.922Z,17.69
2023-03-26T04:41:26.376Z,17.61
2023-03-26T04:44:01.918Z,17.59
2023-03-26T04:46:37.676Z,17.57
2023-03-26T04:49:18.751Z,17.53
2023-03-26T04:51:51.486Z,17.52
2023-03-26T04:54:24.631Z,17.55
2023-03-26T04:57:09.091Z,17.60
2023-03-26T04:59:42.976Z,17.86
2023-03-26T05:02:16.040Z,17.64
2023-03-26T05:04:50.014Z,17.59
2023-03-26T05:07:24.110Z,17.61
2023-03-26T05:09:57.479Z,17.55
2023-03-26T05:12:30.716Z,17.58
2023-03-26T05:15:04.572Z,17.57
2023-03-26T05:17:41.601Z,17.54
2023-03-26T05:20:21.673Z,17.54
2023-03-26T05:22:54.214Z,17.49
2023-03-26T05:25:26.824Z,17.53
2023-03-26T05:28:05.715Z,17.46
2023-03-26T05:30:43.712Z,17.51
2023-03-26T05:33:21.469Z,17.44
2023-03-26T05:36:09.726Z,17.54
2023-03-26T05:38:47.690Z,17.50
2023-03-26T05:41:20.489Z,17.51
2023-03-26T05:43:53.194Z,17.49
2023-03-26T05:46:25.926Z,17.42
2023-03-26T05:48:58.584Z,17.44
2023-03-26T05:51:31.192Z,17.51
2023-03-26T05:54:04.022Z,17.55
2023-03-26T05:56:36.746Z,17.43
2023-03-26T05:59:09.473Z,17.53
2023-03-26T06:01:44.784Z,17.49
2023-03-26T06:04:18.628Z,17.71
2023-03-26T06:06:57.014Z,17.65
2023-03-26T06:09:29.584Z,17.75
2023-03-26T06:12:05.659Z,17.75
2023-03-26T06:14:42.850Z,17.83
2023-03-26T06:17:18.756Z,17.88
2023-03-26T06:19:51.394Z,18.02
2023-03-26T06:22:23.965Z,17.94
2023-03-26T06:24:56.608Z,18.06
2023-03-26T06:27:29.239Z,18.21
2023-03-26T06:30:01.919Z,18.14
2023-03-26T06:32:37.446Z,18.24
2023-03-26T06:35:36.500Z,18.36
2023-03-26T06:38:09.094Z,18.42
2023-03-26T06:40:41.767Z,18.40
2023-03-26T06:43:18.934Z,18.39
2023-03-26T06:45:54.700Z,18.52
2023-03-26T06:48:36.872Z,18.56
2023-03-26T06:51:20.995Z,18.57
2023-03-26T06:53:56.749Z,18.65
2023-03-26T06:56:32.583Z,18.63
2023-03-26T06:59:05.438Z,18.65
2023-03-26T07:01:38.278Z,18.60
2023-03-26T07:04:11.257Z,18.63
2023-03-26T07:06:47.039Z,18.64
2023-03-26T07:09:22.213Z,18.72
2023-03-26T07:11:54.921Z,18.79
2023-03-26T07:14:34.256Z,18.90
2023-03-26T07:17:10.375Z,18.81
2023-03-26T07:19:48.984Z,18.81
2023-03-26T07:22:27.336Z,18.79
2023-03-26T07:25:00.409Z,18.91
2023-03-26T07:28:01.991Z,18.92
2023-03-26T07:34:41.969Z,19.13
2023-03-26T07:37:50.448Z,19.22
2023-03-26T07:41:17.636Z,19.24
2023-03-26T07:44:34.600Z,19.13
2023-03-26T07:47:40.878Z,19.09
2023-03-26T07:50:19.882Z,19.09
2023-03-26T07:52:53.451Z,19.19
2023-03-26T07:55:27.143Z,19.19
2023-03-26T07:58:39.332Z,19.29
2023-03-26T08:01:48.739Z,19.21
2023-03-26T08:04:33.510Z,19.17
2023-03-26T08:07:42.553Z,19.07
2023-03-26T08:10:41.240Z,19.15
2023-03-26T08:13:34.810Z,19.11
2023-03-26T08:16:29.147Z,19.11
2023-03-26T08:19:40.845Z,19.08
2023-03-26T08:22:31.129Z,19.08
2023-03-26T08:25:33.246Z,19.13
2023-03-26T08:28:34.404Z,19.02
2023-03-26T08:31:13.652Z,18.98
2023-03-26T08:33:46.437Z,18.99
2023-03-26T08:36:18.981Z,18.94
2023-03-26T08:38:52.425Z,18.88
2023-03-26T08:42:56.844Z,19.06
2023-03-26T08:46:02.987Z,18.98
2023-03-26T08:48:48.140Z,18.96
2023-03-26T08:52:23.000Z,18.99
2023-03-26T08:55:36.494Z,18.97
2023-03-26T08:58:48.422Z,18.99
2023-03-26T09:01:32.954Z,18.85
2023-03-26T09:05:01.765Z,18.91
2023-03-26T09:07:55.446Z,18.81
2023-03-26T09:10:53.550Z,18.87
2023-03-26T09:13:44.830Z,18.77
2023-03-26T09:16:37.051Z,18.84
2023-03-26T09:19:53.405Z,18.84
2023-03-26T09:23:01.270Z,18.78
2023-03-26T09:26:15.840Z,18.74
2023-03-26T09:29:29.706Z,18.82
2023-03-26T09:32:51.890Z,18.81
2023-03-26T09:36:18.289Z,18.73
2023-03-26T09:39:09.438Z,18.65
2023-03-26T09:42:16.932Z,18.73
2023-03-26T09:44:58.093Z,18.65
2023-03-26T09:47:48.535Z,18.65
2023-03-26T09:50:45.578Z,18.64
2023-03-26T09:53:51.574Z,18.64
2023-03-26T09:57:03.245Z,18.68
2023-03-26T09:59:57.545Z,18.60
2023-03-26T10:02:58.750Z,18.64
2023-03-26T10:05:51.981Z,18.58
2023-03-26T10:09:07.465Z,18.55
2023-03-26T10:11:52.204Z,18.55
2023-03-26T10:14:58.095Z,18.52
2023-03-26T10:17:57.147Z,18.55
2023-03-26T10:20:48.207Z,18.52
2023-03-26T10:24:02.749Z,18.60
2023-03-26T10:27:13.633Z,18.60
2023-03-26T10:30:50.200Z,18.63
2023-03-26T10:33:42.080Z,18.52
2023-03-26T10:36:35.076Z,18.49
2023-03-26T10:39:46.937Z,18.49
2023-03-26T10:42:38.746Z,18.59
2023-03-26T10:45:36.318Z,18.51
2023-03-26T10:48:52.003Z,18.55
2023-03-26T10:51:51.459Z,18.57
2023-03-26T10:54:36.374Z,18.50
2023-03-26T10:57:29.863Z,18.58
2023-03-26T11:00:14.501Z,18.56
2023-03-26T11:03:14.794Z,18.52
2023-03-26T11:06:26.699Z,18.50
2023-03-26T11:09:27.829Z,18.57
2023-03-26T11:12:26.751Z,18.51
2023-03-26T11:15:26.512Z,18.58
2023-03-26T11:18:23.921Z,18.56
2023-03-26T11:21:19.880Z,18.50
2023-03-26T11:24:30.875Z,18.53
2023-03-26T11:27:42.093Z,18.58
2023-03-26T11:30:48.643Z,18.50
2023-03-26T11:33:33.013Z,18.49
2023-03-26T11:36:14.367Z,18.77
2023-03-26T11:38:50.258Z,18.58
2023-03-26T11:41:30.757Z,18.60
2023-03-26T11:44:22.531Z,18.66
2023-03-26T11:47:04.224Z,18.69
2023-03-26T11:49:39.489Z,18.74
2023-03-26T11:52:12.436Z,18.71
2023-03-26T11:54:48.406Z,18.78
2023-03-26T11:57:29.202Z,18.86
2023-03-26T12:00:16.860Z,18.90
2023-03-26T12:02:49.788Z,18.93
2023-03-26T12:05:33.706Z,18.98
2023-03-26T12:08:28.269Z,19.09
2023-03-26T12:11:11.096Z,19.08
2023-03-26T12:13:52.552Z,19.11
2023-03-26T12:16:26.423Z,19.13
2023-03-26T12:19:18.381Z,19.17
2023-03-26T12:21:52.946Z,19.14
2023-03-26T12:24:36.198Z,19.16
2023-03-26T12:27:28.560Z,19.22
2023-03-26T12:30:21.496Z,19.17
2023-03-26T12:33:03.702Z,19.18
2023-03-26T12:35:36.534Z,19.19
2023-03-26T12:38:33.345Z,19.28
2023-03-26T12:44:44.987Z,19.21
2023-03-26T12:44:59.056Z,19.26
2023-03-26T12:48:01.103Z,19.22
2023-03-26T12:51:00.295Z,19.20
2023-03-26T12:53:57.739Z,19.22
2023-03-26T12:57:12.163Z,19.22
2023-03-26T13:00:09.439Z,19.48
2023-03-26T13:03:07.870Z,19.29
2023-03-26T13:06:12.440Z,19.25
2023-03-26T13:09:23.867Z,19.25
2023-03-26T13:12:56.944Z,19.32
2023-03-26T13:15:49.122Z,19.23
2023-03-26T13:18:43.552Z,19.26
2023-03-26T13:21:58.394Z,19.25
2023-03-26T13:24:44.762Z,19.22
2023-03-26T13:27:49.581Z,19.22
2023-03-26T13:31:02.516Z,19.30
2023-03-26T13:34:17.133Z,19.22
2023-03-26T13:37:13.322Z,19.19
2023-03-26T13:40:15.936Z,19.16
2023-03-26T13:42:58.241Z,19.16
2023-03-26T13:45:56.148Z,19.15
2023-03-26T13:48:47.304Z,19.07
2023-03-26T13:51:39.773Z,19.10
2023-03-26T13:54:31.155Z,19.11
2023-03-26T13:57:35.234Z,19.11
2023-03-26T14:00:22.749Z,19.01
2023-03-26T14:03:11.064Z,18.96
2023-03-26T14:05:49.588Z,18.92
2023-03-26T14:08:32.987Z,18.88
2023-03-26T14:11:16.192Z,18.92
2023-03-26T14:14:28.561Z,19.02
2023-03-26T14:17:26.377Z,19.00
2023-03-26T14:20:32.971Z,18.94
2023-03-26T14:23:08.507Z,18.88
2023-03-26T14:26:08.437Z,18.86
2023-03-26T14:29:23.894Z,18.91
2023-03-26T14:32:24.781Z,18.82
2023-03-26T14:35:11.342Z,18.81
2023-03-26T14:38:04.732Z,18.71
2023-03-26T14:41:04.230Z,18.72
2023-03-26T14:44:47.678Z,18.79
2023-03-26T14:47:26.679Z,18.68
2023-03-26T14:50:38.461Z,18.69
2023-03-26T14:53:36.159Z,18.74
2023-03-26T14:56:24.366Z,18.63
2023-03-26T14:59:43.684Z,18.67
2023-03-26T15:02:48.782Z,18.71
2023-03-26T15:05:42.325Z,18.82
2023-03-26T15:08:41.730Z,18.60
2023-03-26T15:11:51.669Z,18.50
2023-03-26T15:15:01.875Z,18.47
2023-03-26T15:18:12.277Z,18.44
2023-03-26T15:21:21.616Z,18.46
2023-03-26T15:24:24.903Z,18.50
2023-03-26T15:27:21.576Z,18.40
2023-03-26T15:30:51.358Z,18.42
2023-03-26T15:34:21.244Z,18.44
2023-03-26T15:37:29.204Z,18.35
2023-03-26T15:40:36.505Z,18.41
2023-03-26T15:43:08.917Z,18.29
2023-03-26T15:45:47.526Z,18.27
2023-03-26T15:48:51.502Z,18.27
2023-03-26T15:52:13.159Z,18.34
2023-03-26T15:55:16.807Z,18.32
2023-03-26T15:58:05.333Z,18.10
2023-03-26T16:01:19.191Z,18.23
2023-03-26T16:04:50.346Z,18.29
2023-03-26T16:07:47.393Z,18.21
2023-03-26T16:10:40.851Z,18.20
2023-03-26T16:13:37.754Z,18.22
2023-03-26T16:16:16.414Z,18.24
2023-03-26T16:19:19.935Z,18.28
2023-03-26T16:22:01.574Z,18.29
2023-03-26T16:24:40.198Z,18.29
2023-03-26T16:27:12.647Z,18.39
2023-03-26T16:30:00.595Z,18.48
2023-03-26T16:32:40.652Z,18.45
2023-03-26T16:35:13.107Z,18.49
2023-03-26T16:38:11.678Z,18.60
2023-03-26T16:41:00.645Z,18.59
2023-03-26T16:43:46.807Z,18.58
2023-03-26T16:46:50.444Z,18.68
2023-03-26T16:49:42.550Z,18.66
2023-03-26T16:52:42.678Z,18.68
2023-03-26T16:55:24.221Z,18.70
2023-03-26T16:58:10.965Z,18.67
2023-03-26T17:01:10.982Z,18.71
2023-03-26T17:04:07.150Z,18.71
2023-03-26T17:07:19.984Z,18.79
2023-03-26T17:10:30.710Z,18.81
2023-03-26T17:13:15.835Z,18.68
2023-03-26T17:16:09.292Z,18.71
2023-03-26T17:19:18.013Z,18.71
2023-03-26T17:22:06.420Z,18.65
2023-03-26T17:25:04.714Z,18.71
2023-03-26T17:27:55.910Z,18.68
2023-03-26T17:31:03.490Z,18.63
2023-03-26T17:33:39.511Z,18.59
2023-03-26T17:36:13.607Z,18.57
2023-03-26T17:38:45.995Z,18.56
2023-03-26T17:42:09.704Z,18.60
2023-03-26T17:45:20.439Z,18.55
2023-03-26T17:47:58.933Z,18.47
2023-03-26T17:50:46.467Z,18.50
2023-03-26T17:53:28.482Z,18.45
2023-03-26T17:56:12.033Z,18.42
2023-03-26T17:58:49.369Z,18.40
2023-03-26T18:01:35.094Z,18.37
2023-03-26T18:04:19.537Z,18.35
2023-03-26T18:07:30.969Z,18.59
2023-03-26T18:10:43.401Z,18.31
2023-03-26T18:13:30.936Z,18.30
2023-03-26T18:16:38.965Z,18.29
2023-03-26T18:19:19.818Z,18.24
2023-03-26T18:21:56.824Z,18.22
2023-03-26T18:24:42.176Z,18.18
2023-03-26T18:27:20.314Z,18.16
2023-03-26T18:30:03.380Z,18.06
2023-03-26T18:33:00.174Z,18.06
2023-03-26T18:35:56.265Z,18.21
2023-03-26T18:38:35.942Z,17.99
2023-03-26T18:41:41.689Z,18.13
2023-03-26T18:44:20.701Z,17.91
2023-03-26T18:46:56.307Z,18.06
2023-03-26T18:49:29.863Z,18.03
2023-03-26T18:52:05.415Z,18.03
2023-03-26T18:54:50.342Z,17.98
2023-03-26T18:57:28.651Z,17.96
2023-03-26T19:00:23.292Z,17.97
2023-03-26T19:03:12.401Z,17.93
2023-03-26T19:05:53.764Z,17.82
2023-03-26T19:08:27.358Z,17.82
2023-03-26T19:11:17.803Z,17.84
2023-03-26T19:17:20.804Z,17.75
2023-03-26T19:19:57.494Z,17.65
2023-03-26T19:22:31.470Z,17.78
2023-03-26T19:25:05.261Z,17.76
2023-03-26T19:27:50.689Z,17.67
2023-03-26T19:31:36.688Z,17.67
2023-03-26T19:34:59.676Z,17.69
2023-03-26T19:37:32.660Z,17.53
2023-03-26T19:40:30.183Z,17.57
2023-03-26T19:43:05.588Z,17.51
2023-03-26T19:45:59.689Z,17.56
2023-03-26T19:48:49.219Z,17.55
2023-03-26T19:51:55.095Z,17.41
2023-03-26T19:55:01.959Z,17.42
2023-03-26T19:57:37.808Z,17.44
2023-03-26T20:00:30.820Z,17.60
2023-03-26T20:03:03.833Z,17.41
2023-03-26T20:06:03.293Z,17.74
2023-03-26T20:08:36.579Z,17.44
2023-03-26T20:11:25.933Z,17.33
2023-03-26T20:14:00.657Z,17.32
2023-03-26T20:16:35.031Z,17.34
2023-03-26T20:19:13.896Z,17.28
2023-03-26T20:21:49.306Z,17.38
2023-03-26T20:24:36.083Z,17.43
2023-03-26T20:27:17.452Z,17.26
2023-03-26T20:29:50.061Z,17.34
2023-03-26T20:32:34.323Z,17.40
2023-03-26T20:35:37.857Z,17.34
2023-03-26T20:38:11.261Z,17.36
2023-03-26T20:40:44.836Z,17.36
2023-03-26T20:43:32.908Z,17.49
2023-03-26T20:46:06.593Z,17.55
2023-03-26T20:48:39.686Z,17.56
2023-03-26T20:51:28.517Z,17.69
2023-03-26T20:54:01.960Z,17.56
2023-03-26T20:56:43.742Z,17.67
2023-03-26T20:59:26.382Z,17.60
2023-03-26T21:02:00.189Z,17.84
2023-03-26T21:04:32.982Z,17.75
2023-03-26T21:07:17.720Z,17.84
2023-03-26T21:09:51.464Z,17.78
2023-03-26T21:12:42.026Z,17.86
2023-03-26T21:15:22.900Z,17.94
2023-03-26T21:17:57.166Z,17.90
2023-03-26T21:20:32.598Z,17.96
2023-03-26T21:23:32.333Z,18.07
2023-03-26T21:26:44.078Z,18.21
2023-03-26T21:29:17.141Z,18.07
2023-03-26T21:31:52.124Z,18.09
2023-03-26T21:34:27.344Z,18.10
2023-03-26T21:37:01.643Z,18.11
2023-03-26T21:39:34.936Z,17.98
2023-03-26T21:42:11.893Z,18.11
2023-03-26T21:44:44.935Z,17.95
2023-03-26T21:47:17.887Z,17.95
2023-03-26T21:49:50.934Z,18.01
2023-03-26T21:52:24.615Z,18.00
2023-03-26T21:55:00.721Z,18.09
2023-03-26T21:57:45.691Z,18.03
2023-03-26T22:00:33.506Z,17.96
2023-03-26T22:03:34.431Z,18.09
2023-03-26T22:06:28.275Z,17.99
2023-03-26T22:09:01.283Z,17.95
2023-03-26T22:11:33.897Z,17.90
2023-03-26T22:14:06.594Z,17.95
2023-03-26T22:16:40.922Z,17.82
2023-03-26T22:19:13.787Z,17.92
2023-03-26T22:21:46.449Z,17.83
2023-03-26T22:24:19.724Z,17.83
2023-03-26T22:26:56.125Z,17.95
2023-03-26T22:29:28.865Z,17.76
2023-03-26T22:32:03.591Z,17.78
2023-03-26T22:34:36.209Z,17.78
2023-03-26T22:37:09.046Z,17.78
2023-03-26T22:39:41.997Z,17.72
2023-03-26T22:42:20.631Z,17.79
2023-03-26T22:44:53.411Z,17.79
2023-03-26T22:47:26.180Z,17.74
2023-03-26T22:49:59.012Z,17.83
2023-03-26T22:52:31.651Z,17.70
2023-03-26T22:55:05.412Z,17.77
2023-03-26T22:57:47.475Z,17.69
2023-03-26T23:00:22.073Z,17.69
2023-03-26T23:03:04.503Z,17.59
2023-03-26T23:05:37.272Z,17.59
2023-03-26T23:08:11.035Z,17.61
2023-03-26T23:10:43.986Z,17.53
2023-03-26T23:13:17.002Z,17.43
2023-03-26T23:15:52.527Z,17.43
2023-03-26T23:18:34.735Z,17.52
2023-03-26T23:21:18.470Z,17.45
2023-03-26T23:23:54.120Z,17.40
2023-03-26T23:26:32.729Z,17.38
2023-03-26T23:29:07.825Z,17.37
2023-03-26T23:31:49.553Z,17.30
2023-03-26T23:34:28.181Z,17.29
2023-03-26T23:37:01.153Z,17.32
2023-03-26T23:39:33.785Z,17.28
2023-03-26T23:42:06.570Z,17.23
2023-03-26T23:47:27.082Z,17.15
2023-03-26T23:50:04.205Z,17.13
2023-03-26T23:52:37.637Z,17.23
2023-03-26T23:55:10.308Z,17.16
2023-03-26T23:57:43.239Z,17.12
